createdAt,value
2022-10-17T00:01:06.833Z,15.71
2022-10-17T00:03:38.423Z,15.71
2022-10-17T00:06:14.943Z,15.70
2022-10-17T00:08:44.347Z,15.69
2022-10-17T00:11:18.770Z,15.69
2022-10-17T00:13:48.304Z,15.68
2022-10-17T00:16:26.323Z,15.66
2022-10-17T00:18:54.785Z,15.65
2022-10-17T00:21:23.217Z,15.65
2022-10-17T00:23:52.698Z,15.65
2022-10-17T00:26:21.030Z,15.64
2022-10-17T00:28:52.381Z,15.63
2022-10-17T00:31:21.709Z,15.61
2022-10-17T00:33:52.127Z,15.60
2022-10-17T00:36:23.681Z,15.58
2022-10-17T00:38:59.449Z,15.57
2022-10-17T00:41:30.811Z,15.55
2022-10-17T00:44:00.990Z,15.54
2022-10-17T00:46:37.975Z,15.53
2022-10-17T00:49:09.570Z,15.51
2022-10-17T00:51:46.567Z,15.49
2022-10-17T00:54:17.578Z,15.48
2022-10-17T00:56:47.909Z,15.46
2022-10-17T00:59:17.868Z,15.44
2022-10-17T01:01:55.328Z,15.42
2022-10-17T01:04:24.343Z,15.39
2022-10-17T01:06:54.885Z,15.37
2022-10-17T01:09:23.339Z,15.35
2022-10-17T01:12:21.269Z,15.33
2022-10-17T01:14:58.278Z,15.30
2022-10-17T01:17:44.802Z,15.26
2022-10-17T01:20:41.508Z,15.24
2022-10-17T01:23:51.157Z,15.21
2022-10-17T01:26:57.681Z,15.18
2022-10-17T01:29:59.811Z,15.15
2022-10-17T01:32:40.768Z,15.12
2022-10-17T01:35:20.877Z,15.10
2022-10-17T01:38:04.786Z,15.07
2022-10-17T01:40:51.341Z,15.04
2022-10-17T01:43:28.769Z,15.03
2022-10-17T01:46:13.570Z,15.02
2022-10-17T01:48:45.808Z,15.02
2022-10-17T01:51:21.525Z,15.01
2022-10-17T01:53:54.595Z,15.00
2022-10-17T01:56:27.480Z,14.98
2022-10-17T01:59:01.823Z,14.97
2022-10-17T02:01:34.642Z,14.95
2022-10-17T02:04:05.760Z,14.94
2022-10-17T02:06:38.103Z,14.93
2022-10-17T02:09:25.915Z,14.93
2022-10-17T02:12:09.285Z,14.92
2022-10-17T02:14:55.563Z,14.91
2022-10-17T02:17:44.622Z,14.91
2022-10-17T02:20:34.583Z,14.91
2022-10-17T02:23:27.687Z,14.92
2022-10-17T02:26:09.422Z,14.93
2022-10-17T02:29:12.197Z,14.93
2022-10-17T02:31:53.814Z,14.93
2022-10-17T02:34:36.904Z,14.93
2022-10-17T02:37:08.637Z,14.94
2022-10-17T02:39:40.101Z,14.93
2022-10-17T02:42:12.487Z,14.92
2022-10-17T02:44:43.398Z,14.91
2022-10-17T02:47:44.576Z,14.90
2022-10-17T02:50:12.417Z,14.90
2022-10-17T02:52:51.943Z,14.88
2022-10-17T02:55:29.092Z,14.87
2022-10-17T02:58:06.736Z,14.86
2022-10-17T03:00:40.733Z,14.85
2022-10-17T03:03:27.499Z,14.84
2022-10-17T03:05:55.689Z,14.84
2022-10-17T03:08:25.181Z,14.83
2022-10-17T03:10:53.888Z,14.82
2022-10-17T03:13:22.269Z,14.82
2022-10-17T03:15:51.298Z,14.82
2022-10-17T03:18:19.460Z,14.80
2022-10-17T03:20:47.753Z,14.79
2022-10-17T03:23:15.744Z,14.79
2022-10-17T03:25:43.504Z,14.78
2022-10-17T03:28:12.727Z,14.77
2022-10-17T03:30:40.509Z,14.76
2022-10-17T03:33:08.387Z,14.75
2022-10-17T03:35:40.424Z,14.73
2022-10-17T03:38:08.789Z,14.72
2022-10-17T03:40:37.763Z,14.70
2022-10-17T03:43:06.069Z,14.68
2022-10-17T03:45:33.810Z,14.67
2022-10-17T03:48:02.224Z,14.65
2022-10-17T03:50:30.681Z,14.64
2022-10-17T03:52:59.217Z,14.62
2022-10-17T03:55:27.840Z,14.60
2022-10-17T03:57:56.581Z,14.58
2022-10-17T04:00:24.886Z,14.57
2022-10-17T04:02:55.662Z,14.55
2022-10-17T04:05:23.901Z,14.54
2022-10-17T04:07:52.047Z,14.51
2022-10-17T04:10:23.097Z,14.50
2022-10-17T04:12:51.482Z,14.47
2022-10-17T04:15:19.590Z,14.45
2022-10-17T04:17:48.650Z,14.43
2022-10-17T04:20:17.172Z,14.39
2022-10-17T04:22:46.344Z,14.35
2022-10-17T04:25:14.950Z,14.32
2022-10-17T04:27:49.350Z,14.29
2022-10-17T04:30:17.477Z,14.25
2022-10-17T04:32:45.981Z,14.22
2022-10-17T04:35:18.302Z,14.19
2022-10-17T04:37:51.312Z,14.16
2022-10-17T04:40:30.139Z,14.13
2022-10-17T04:42:58.020Z,14.10
2022-10-17T04:45:31.428Z,14.06
2022-10-17T04:48:04.088Z,14.02
2022-10-17T04:50:32.476Z,13.97
2022-10-17T04:53:19.232Z,13.94
2022-10-17T04:55:48.784Z,13.91
2022-10-17T04:58:17.536Z,13.86
2022-10-17T05:00:45.748Z,13.81
2022-10-17T05:03:23.397Z,13.76
2022-10-17T05:05:51.234Z,13.71
2022-10-17T05:08:19.448Z,13.67
2022-10-17T05:10:50.121Z,13.64
2022-10-17T05:13:17.975Z,13.60
2022-10-17T05:15:47.594Z,13.58
2022-10-17T05:18:16.596Z,13.56
2022-10-17T05:20:46.046Z,13.56
2022-10-17T05:23:16.760Z,13.55
2022-10-17T05:25:46.800Z,13.54
2022-10-17T05:28:14.637Z,13.53
2022-10-17T05:30:43.310Z,13.52
2022-10-17T05:33:11.782Z,13.54
2022-10-17T05:35:41.642Z,13.55
2022-10-17T05:38:13.507Z,13.58
2022-10-17T05:40:44.351Z,13.60
2022-10-17T05:43:12.589Z,13.64
2022-10-17T05:45:41.994Z,13.68
2022-10-17T05:48:13.024Z,13.72
2022-10-17T05:50:40.752Z,13.75
2022-10-17T05:53:16.849Z,13.79
2022-10-17T05:55:56.127Z,13.89
2022-10-17T06:01:25.034Z,14.08
2022-10-17T06:03:53.442Z,14.19
2022-10-17T06:06:22.867Z,14.33
2022-10-17T06:08:51.636Z,14.47
2022-10-17T06:11:26.560Z,14.63
2022-10-17T06:13:55.040Z,14.81
2022-10-17T06:16:26.642Z,14.94
2022-10-17T06:18:54.934Z,15.08
2022-10-17T06:21:25.415Z,15.22
2022-10-17T06:23:57.315Z,15.39
2022-10-17T06:26:37.467Z,15.53
2022-10-17T06:29:08.241Z,15.67
2022-10-17T06:31:41.229Z,15.79
2022-10-17T06:34:09.098Z,15.93
2022-10-17T06:36:39.071Z,16.07
2022-10-17T06:39:07.760Z,16.21
2022-10-17T06:41:46.088Z,16.34
2022-10-17T06:44:19.151Z,16.49
2022-10-17T06:47:13.433Z,16.64
2022-10-17T06:49:45.881Z,16.75
2022-10-17T06:52:26.952Z,16.85
2022-10-17T06:55:21.427Z,16.92
2022-10-17T06:58:03.319Z,16.97
2022-10-17T07:00:46.676Z,17.04
2022-10-17T07:03:16.557Z,17.12
2022-10-17T07:05:52.326Z,17.21
2022-10-17T07:08:20.389Z,17.33
2022-10-17T07:10:48.233Z,17.44
2022-10-17T07:13:16.386Z,17.56
2022-10-17T07:15:44.289Z,17.69
2022-10-17T07:18:12.673Z,17.81
2022-10-17T07:20:40.571Z,17.93
2022-10-17T07:23:08.538Z,18.04
2022-10-17T07:25:40.096Z,18.18
2022-10-17T07:28:09.896Z,18.31
2022-10-17T07:30:39.535Z,18.44
2022-10-17T07:33:11.417Z,18.55
2022-10-17T07:35:43.468Z,18.65
2022-10-17T07:38:12.033Z,18.73
2022-10-17T07:40:39.826Z,18.83
2022-10-17T07:43:07.954Z,18.93
2022-10-17T07:45:36.804Z,19.05
2022-10-17T07:48:06.370Z,19.14
2022-10-17T07:50:35.247Z,19.22
2022-10-17T07:53:18.199Z,19.32
2022-10-17T07:55:59.821Z,19.41
2022-10-17T07:58:48.188Z,19.50
2022-10-17T08:01:17.580Z,19.57
2022-10-17T08:03:47.267Z,19.64
2022-10-17T08:06:15.750Z,19.72
2022-10-17T08:08:44.429Z,19.81
2022-10-17T08:11:14.401Z,19.90
2022-10-17T08:13:42.571Z,19.97
2022-10-17T08:16:13.576Z,20.04
2022-10-17T08:18:43.090Z,20.12
2022-10-17T08:21:13.554Z,20.19
2022-10-17T08:23:41.834Z,20.25
2022-10-17T08:26:13.359Z,20.32
2022-10-17T08:28:42.061Z,20.36
2022-10-17T08:31:12.648Z,20.43
2022-10-17T08:33:42.439Z,20.50
2022-10-17T08:36:14.783Z,20.57
2022-10-17T08:38:43.902Z,20.67
2022-10-17T08:41:38.620Z,20.77
2022-10-17T08:44:19.543Z,20.86
2022-10-17T08:46:50.183Z,20.97
2022-10-17T08:49:57.431Z,21.03
2022-10-17T08:52:45.507Z,21.14
2022-10-17T08:55:41.331Z,21.22
2022-10-17T08:58:14.948Z,21.22
2022-10-17T09:00:52.994Z,21.21
2022-10-17T09:03:51.605Z,21.25
2022-10-17T09:06:57.109Z,21.34
2022-10-17T09:09:45.401Z,21.40
2022-10-17T09:12:21.077Z,21.44
2022-10-17T09:15:36.889Z,21.51
2022-10-17T09:18:21.193Z,21.61
2022-10-17T09:20:58.144Z,21.71
2022-10-17T09:23:30.585Z,21.82
2022-10-17T09:26:00.754Z,21.93
2022-10-17T09:28:34.987Z,22.04
2022-10-17T09:31:27.133Z,22.13
2022-10-17T09:33:57.160Z,22.21
2022-10-17T09:36:37.810Z,22.28
2022-10-17T09:39:13.298Z,22.34
2022-10-17T09:41:50.323Z,22.40
2022-10-17T09:44:26.358Z,22.47
2022-10-17T09:47:08.176Z,22.54
2022-10-17T09:49:39.776Z,22.62
2022-10-17T09:52:21.706Z,22.70
2022-10-17T09:54:56.106Z,22.80
2022-10-17T09:57:25.622Z,22.85
2022-10-17T10:00:02.683Z,22.91
2022-10-17T10:02:36.441Z,23.00
2022-10-17T10:05:06.275Z,23.07
2022-10-17T10:07:38.448Z,23.10
2022-10-17T10:10:25.445Z,23.13
2022-10-17T10:13:15.953Z,23.17
2022-10-17T10:15:45.896Z,23.21
2022-10-17T10:18:26.107Z,23.22
2022-10-17T10:21:09.755Z,23.26
2022-10-17T10:23:45.437Z,23.30
2022-10-17T10:26:22.508Z,23.37
2022-10-17T10:28:58.113Z,23.45
2022-10-17T10:31:33.604Z,23.55
2022-10-17T10:34:13.645Z,23.66
2022-10-17T10:37:03.095Z,23.75
2022-10-17T10:39:50.076Z,23.81
2022-10-17T10:42:37.637Z,23.89
2022-10-17T10:48:25.911Z,24.09
2022-10-17T10:51:01.948Z,24.14
2022-10-17T10:53:52.753Z,24.21
2022-10-17T10:56:40.802Z,24.28
2022-10-17T10:59:09.323Z,24.34
2022-10-17T11:02:00.438Z,24.41
2022-10-17T11:04:31.539Z,24.51
2022-10-17T11:07:06.380Z,24.60
2022-10-17T11:09:49.281Z,24.69
2022-10-17T11:12:20.815Z,24.76
2022-10-17T11:14:57.972Z,24.83
2022-10-17T11:17:43.288Z,24.90
2022-10-17T11:20:25.972Z,24.97
2022-10-17T11:23:21.426Z,25.01
2022-10-17T11:25:51.978Z,25.09
2022-10-17T11:28:23.175Z,25.21
2022-10-17T11:31:04.537Z,25.31
2022-10-17T11:33:58.369Z,25.34
2022-10-17T11:36:31.646Z,25.39
2022-10-17T11:39:09.281Z,25.43
2022-10-17T11:42:13.180Z,25.46
2022-10-17T11:44:42.573Z,25.53
2022-10-17T11:47:16.524Z,25.59
2022-10-17T11:49:55.309Z,25.65
2022-10-17T11:55:29.868Z,25.74
2022-10-17T11:58:30.763Z,25.80
2022-10-17T12:01:19.057Z,25.74
2022-10-17T12:04:02.866Z,25.70
2022-10-17T12:06:52.547Z,25.71
2022-10-17T12:09:42.472Z,25.67
2022-10-17T12:12:10.256Z,25.65
2022-10-17T12:14:48.135Z,25.65
2022-10-17T12:17:39.317Z,25.64
2022-10-17T12:20:27.565Z,25.68
2022-10-17T12:23:10.552Z,25.66
2022-10-17T12:25:48.577Z,25.60
2022-10-17T12:28:23.706Z,25.59
2022-10-17T12:30:59.322Z,25.59
2022-10-17T12:33:52.137Z,25.56
2022-10-17T12:36:22.915Z,25.55
2022-10-17T12:39:08.815Z,25.52
2022-10-17T12:41:39.714Z,25.48
2022-10-17T12:44:14.702Z,25.46
2022-10-17T12:46:58.164Z,25.45
2022-10-17T12:49:41.445Z,25.37
2022-10-17T12:52:58.263Z,25.27
2022-10-17T12:55:26.881Z,25.20
2022-10-17T12:58:05.589Z,25.15
2022-10-17T13:01:22.467Z,25.11
2022-10-17T13:03:49.197Z,25.08
2022-10-17T13:06:24.883Z,25.09
2022-10-17T13:09:06.249Z,25.11
2022-10-17T13:11:37.964Z,25.07
2022-10-17T13:14:13.137Z,25.02
2022-10-17T13:16:55.011Z,24.92
2022-10-17T13:19:26.010Z,24.86
2022-10-17T13:22:06.701Z,24.86
2022-10-17T13:24:40.824Z,24.87
2022-10-17T13:27:32.391Z,24.84
2022-10-17T13:30:12.296Z,24.78
2022-10-17T13:32:45.129Z,24.72
2022-10-17T13:35:24.412Z,24.67
2022-10-17T13:37:54.273Z,24.65
2022-10-17T13:40:44.589Z,24.62
2022-10-17T13:43:24.673Z,24.57
2022-10-17T13:45:56.432Z,24.57
2022-10-17T13:48:28.533Z,24.54
2022-10-17T13:51:02.780Z,24.54
2022-10-17T13:53:39.966Z,24.58
2022-10-17T13:56:28.006Z,24.54
2022-10-17T13:59:00.328Z,24.51
2022-10-17T14:01:29.811Z,24.44
2022-10-17T14:04:09.000Z,24.39
2022-10-17T14:06:49.329Z,24.32
2022-10-17T14:09:27.102Z,24.27
2022-10-17T14:12:11.142Z,24.23
2022-10-17T14:15:05.139Z,24.19
2022-10-17T14:17:30.727Z,24.13
2022-10-17T14:20:29.686Z,24.09
2022-10-17T14:23:21.588Z,24.05
2022-10-17T14:25:46.896Z,23.99
2022-10-17T14:28:35.094Z,23.93
2022-10-17T14:31:16.068Z,23.87
2022-10-17T14:33:50.486Z,23.80
2022-10-17T14:36:21.603Z,23.76
2022-10-17T14:38:52.104Z,23.73
2022-10-17T14:41:42.839Z,23.69
2022-10-17T14:44:20.784Z,23.62
2022-10-17T14:46:53.563Z,23.55
2022-10-17T14:49:27.742Z,23.49
2022-10-17T14:52:18.810Z,23.43
2022-10-17T14:54:49.214Z,23.37
2022-10-17T14:57:45.441Z,23.29
2022-10-17T15:00:18.605Z,23.19
2022-10-17T15:02:48.873Z,23.09
2022-10-17T15:05:19.849Z,22.99
2022-10-17T15:07:48.776Z,22.89
2022-10-17T15:10:34.200Z,22.80
2022-10-17T15:13:27.134Z,22.72
2022-10-17T15:15:52.387Z,22.61
2022-10-17T15:18:21.982Z,22.51
2022-10-17T15:20:55.456Z,22.41
2022-10-17T15:23:42.614Z,22.27
2022-10-17T15:26:26.675Z,22.16
2022-10-17T15:28:54.602Z,22.06
2022-10-17T15:31:24.728Z,21.98
2022-10-17T15:33:53.240Z,21.90
2022-10-17T15:36:40.796Z,21.78
2022-10-17T15:39:10.815Z,21.62
2022-10-17T15:41:38.709Z,21.50
2022-10-17T15:44:06.631Z,21.42
2022-10-17T15:46:36.155Z,21.37
2022-10-17T15:49:07.754Z,21.26
2022-10-17T15:51:36.842Z,21.14
2022-10-17T15:54:05.829Z,21.02
2022-10-17T15:56:45.820Z,20.92
2022-10-17T15:59:22.640Z,20.81
2022-10-17T16:01:50.833Z,20.69
2022-10-17T16:04:24.007Z,20.57
2022-10-17T16:06:52.064Z,20.46
2022-10-17T16:09:22.864Z,20.37
2022-10-17T16:11:50.859Z,20.31
2022-10-17T16:14:18.653Z,20.26
2022-10-17T16:16:47.126Z,20.20
2022-10-17T16:19:18.820Z,20.10
2022-10-17T16:21:46.598Z,20.01
2022-10-17T16:24:14.823Z,19.94
2022-10-17T16:26:42.546Z,19.87
2022-10-17T16:29:11.647Z,19.79
2022-10-17T16:31:43.696Z,19.73
2022-10-17T16:34:14.018Z,19.66
2022-10-17T16:36:42.796Z,19.61
2022-10-17T16:39:10.572Z,19.57
2022-10-17T16:41:39.571Z,19.52
2022-10-17T16:44:10.891Z,19.47
2022-10-17T16:46:38.965Z,19.44
2022-10-17T16:49:08.315Z,19.39
2022-10-17T16:51:36.703Z,19.35
2022-10-17T16:54:04.808Z,19.31
2022-10-17T16:56:33.736Z,19.26
2022-10-17T16:59:01.856Z,19.20
2022-10-17T17:01:29.686Z,19.15
2022-10-17T17:03:58.415Z,19.10
2022-10-17T17:06:30.853Z,19.05
2022-10-17T17:08:59.099Z,18.98
2022-10-17T17:11:28.637Z,18.92
2022-10-17T17:13:58.371Z,18.87
2022-10-17T17:16:29.403Z,18.82
2022-10-17T17:19:00.623Z,18.77
2022-10-17T17:21:29.041Z,18.71
2022-10-17T17:24:00.501Z,18.67
2022-10-17T17:26:32.294Z,18.63
2022-10-17T17:29:00.893Z,18.60
2022-10-17T17:31:32.343Z,18.59
2022-10-17T17:34:01.198Z,18.60
2022-10-17T17:36:34.001Z,18.58
2022-10-17T17:39:09.622Z,18.57
2022-10-17T17:41:46.345Z,18.55
2022-10-17T17:44:16.985Z,18.51
2022-10-17T17:46:47.827Z,18.47
2022-10-17T17:49:15.740Z,18.44
2022-10-17T17:51:47.842Z,18.42
2022-10-17T17:54:16.250Z,18.38
2022-10-17T17:56:44.009Z,18.33
2022-10-17T17:59:14.505Z,18.28
2022-10-17T18:01:46.168Z,18.23
2022-10-17T18:04:16.506Z,18.21
2022-10-17T18:06:46.948Z,18.17
2022-10-17T18:09:14.760Z,18.14
2022-10-17T18:11:44.951Z,18.11
2022-10-17T18:14:13.987Z,18.09
2022-10-17T18:16:42.450Z,18.08
2022-10-17T18:19:12.070Z,18.07
2022-10-17T18:21:40.152Z,18.06
2022-10-17T18:24:08.867Z,18.07
2022-10-17T18:26:36.951Z,18.07
2022-10-17T18:29:05.264Z,18.05
2022-10-17T18:31:36.011Z,18.03
2022-10-17T18:34:06.960Z,18.00
2022-10-17T18:36:39.066Z,17.95
2022-10-17T18:39:07.144Z,17.99
2022-10-17T18:41:35.644Z,18.02
2022-10-17T18:44:05.272Z,18.03
2022-10-17T18:46:40.258Z,18.05
2022-10-17T18:49:11.786Z,18.06
2022-10-17T18:51:41.695Z,18.09
2022-10-17T18:54:21.157Z,18.08
2022-10-17T18:56:52.260Z,18.10
2022-10-17T18:59:21.150Z,18.15
2022-10-17T19:01:49.350Z,18.17
2022-10-17T19:04:17.821Z,18.15
2022-10-17T19:06:46.671Z,18.12
2022-10-17T19:09:17.030Z,18.11
2022-10-17T19:11:46.828Z,18.09
2022-10-17T19:14:15.360Z,18.08
2022-10-17T19:16:46.515Z,18.05
2022-10-17T19:19:17.969Z,18.05
2022-10-17T19:21:46.298Z,18.07
2022-10-17T19:24:24.870Z,18.06
2022-10-17T19:26:54.959Z,18.05
2022-10-17T19:29:28.319Z,18.05
2022-10-17T19:31:57.588Z,18.02
2022-10-17T19:34:27.957Z,18.00
2022-10-17T19:36:56.441Z,17.96
2022-10-17T19:39:25.268Z,17.92
2022-10-17T19:41:53.032Z,17.89
2022-10-17T19:44:20.976Z,17.84
2022-10-17T19:46:49.390Z,17.80
2022-10-17T19:49:17.803Z,17.76
2022-10-17T19:51:46.037Z,17.73
2022-10-17T19:54:16.685Z,17.70
2022-10-17T19:56:46.284Z,17.66
2022-10-17T19:59:16.104Z,17.63
2022-10-17T20:01:45.092Z,17.61
2022-10-17T20:04:14.480Z,17.58
2022-10-17T20:06:42.324Z,17.55
2022-10-17T20:09:15.646Z,17.51
2022-10-17T20:11:49.204Z,17.49
2022-10-17T20:14:17.304Z,17.48
2022-10-17T20:16:49.986Z,17.46
2022-10-17T20:19:18.271Z,17.44
2022-10-17T20:21:46.159Z,17.41
2022-10-17T20:24:16.224Z,17.38
2022-10-17T20:26:45.565Z,17.35
2022-10-17T20:29:20.068Z,17.32
2022-10-17T20:31:49.733Z,17.30
2022-10-17T20:34:18.691Z,17.27
2022-10-17T20:36:47.024Z,17.25
2022-10-17T20:39:16.574Z,17.23
2022-10-17T20:41:45.778Z,17.22
2022-10-17T20:44:13.737Z,17.20
2022-10-17T20:46:48.682Z,17.19
2022-10-17T20:49:22.227Z,17.19
2022-10-17T20:51:49.958Z,17.18
2022-10-17T20:54:17.732Z,17.16
2022-10-17T20:56:45.493Z,17.14
2022-10-17T20:59:17.921Z,17.15
2022-10-17T21:01:46.240Z,17.15
2022-10-17T21:04:44.822Z,17.16
2022-10-17T21:07:03.737Z,17.18
2022-10-17T21:09:32.842Z,17.21
2022-10-17T21:14:36.454Z,17.20
2022-10-17T21:17:05.404Z,17.19
2022-10-17T21:19:33.969Z,17.15
2022-10-17T21:22:02.089Z,17.13
2022-10-17T21:24:30.997Z,17.10
2022-10-17T21:26:58.954Z,17.05
2022-10-17T21:29:27.890Z,17.02
2022-10-17T21:31:55.695Z,16.98
2022-10-17T21:34:25.206Z,16.95
2022-10-17T21:36:53.279Z,16.94
2022-10-17T21:39:22.969Z,16.94
2022-10-17T21:41:51.854Z,16.94
2022-10-17T21:44:22.584Z,16.93
2022-10-17T21:46:51.431Z,16.91
2022-10-17T21:49:21.748Z,16.89
2022-10-17T21:51:50.442Z,16.87
2022-10-17T21:54:20.007Z,16.85
2022-10-17T21:56:47.823Z,16.83
2022-10-17T21:59:17.119Z,16.81
2022-10-17T22:01:46.333Z,16.79
2022-10-17T22:04:16.335Z,16.76
2022-10-17T22:06:47.940Z,16.74
2022-10-17T22:09:20.364Z,16.70
2022-10-17T22:11:51.646Z,16.68
2022-10-17T22:14:21.491Z,16.65
2022-10-17T22:16:50.926Z,16.63
2022-10-17T22:19:22.609Z,16.61
2022-10-17T22:21:50.757Z,16.58
2022-10-17T22:26:49.090Z,16.52
2022-10-17T22:29:17.195Z,16.51
2022-10-17T22:31:45.133Z,16.49
2022-10-17T22:34:15.100Z,16.46
2022-10-17T22:36:43.323Z,16.45
2022-10-17T22:39:11.591Z,16.42
2022-10-17T22:41:39.813Z,16.41
2022-10-17T22:44:07.869Z,16.43
2022-10-17T22:46:36.681Z,16.43
2022-10-17T22:49:06.129Z,16.42
2022-10-17T22:51:33.955Z,16.41
2022-10-17T22:54:01.739Z,16.39
2022-10-17T22:56:29.822Z,16.36
2022-10-17T22:58:58.173Z,16.31
2022-10-17T23:01:27.583Z,16.26
2022-10-17T23:03:55.395Z,16.22
2022-10-17T23:06:23.876Z,16.17
2022-10-17T23:08:52.542Z,16.12
2022-10-17T23:11:21.119Z,16.08
2022-10-17T23:13:49.114Z,16.06
2022-10-17T23:16:17.265Z,16.03
2022-10-17T23:18:45.225Z,16.00
2022-10-17T23:21:15.952Z,15.98
2022-10-17T23:23:46.008Z,15.95
2022-10-17T23:26:15.249Z,15.93
2022-10-17T23:28:43.356Z,15.92
2022-10-17T23:31:14.329Z,15.89
2022-10-17T23:33:52.251Z,15.87
2022-10-17T23:36:21.496Z,15.85
2022-10-17T23:38:51.741Z,15.84
2022-10-17T23:41:22.673Z,15.82
2022-10-17T23:43:51.337Z,15.80
2022-10-17T23:46:19.760Z,15.79
2022-10-17T23:48:47.581Z,15.77
2022-10-17T23:51:15.685Z,15.76
2022-10-17T23:53:44.563Z,15.74
2022-10-17T23:56:12.397Z,15.72
2022-10-17T23:58:40.216Z,15.70
